createdAt,value
2018-05-07T00:02:34.306Z,17.86
2018-05-07T00:17:34.349Z,17.70
2018-05-07T00:32:36.496Z,17.71
2018-05-07T00:47:34.912Z,17.62
2018-05-07T01:02:34.630Z,17.59
2018-05-07T01:17:34.578Z,17.51
2018-05-07T01:32:34.774Z,17.45
2018-05-07T01:47:35.201Z,17.43
2018-05-07T02:02:34.942Z,17.26
2018-05-07T02:17:34.684Z,17.12
2018-05-07T02:32:35.050Z,18.87
2018-05-07T02:47:34.410Z,21.14
2018-05-07T03:02:34.523Z,21.94
2018-05-07T03:17:34.553Z,22.45
2018-05-07T03:32:34.289Z,22.55
2018-05-07T03:47:34.618Z,22.52
2018-05-07T04:02:34.819Z,22.71
2018-05-07T04:17:46.606Z,22.67
2018-05-07T04:32:35.317Z,22.65
2018-05-07T04:47:35.238Z,22.82
2018-05-07T05:02:34.931Z,20.81
2018-05-07T05:17:35.226Z,19.68
2018-05-07T05:32:35.213Z,19.30
2018-05-07T05:47:34.025Z,18.65
2018-05-07T06:02:35.778Z,18.48
2018-05-07T06:17:33.750Z,18.44
2018-05-07T06:32:33.718Z,18.62
2018-05-07T06:47:34.694Z,18.78
2018-05-07T07:02:35.044Z,19.04
2018-05-07T07:17:34.573Z,19.30
2018-05-07T07:32:33.542Z,19.61
2018-05-07T07:47:34.904Z,19.69
2018-05-07T08:02:35.054Z,19.52
2018-05-07T08:17:34.974Z,19.80
2018-05-07T08:32:35.190Z,20.29
2018-05-07T08:47:34.529Z,20.62
2018-05-07T09:02:34.458Z,21.03
2018-05-07T09:17:34.516Z,21.55
2018-05-07T09:32:34.378Z,22.13
2018-05-07T09:47:36.725Z,22.64
2018-05-07T10:02:36.853Z,23.14
2018-05-07T10:17:34.772Z,23.70
2018-05-07T10:32:34.848Z,23.98
2018-05-07T10:47:35.120Z,24.38
2018-05-07T11:02:35.050Z,24.43
2018-05-07T11:17:35.518Z,24.17
2018-05-07T11:32:35.106Z,24.28
2018-05-07T11:47:34.541Z,24.20
2018-05-07T12:02:34.369Z,23.43
2018-05-07T12:17:34.689Z,22.75
2018-05-07T12:32:34.385Z,22.39
2018-05-07T12:47:35.207Z,22.73
2018-05-07T13:02:34.718Z,23.16
2018-05-07T13:17:34.407Z,23.20
2018-05-07T13:32:34.677Z,24.15
2018-05-07T13:47:34.977Z,24.32
2018-05-07T14:02:34.971Z,24.45
2018-05-07T14:17:34.985Z,24.12
2018-05-07T14:32:34.754Z,23.81
2018-05-07T14:47:36.154Z,23.58
2018-05-07T15:02:34.327Z,23.75
2018-05-07T15:17:36.058Z,23.46
2018-05-07T15:32:37.288Z,23.37
2018-05-07T15:47:34.717Z,23.05
2018-05-07T16:02:34.669Z,22.99
2018-05-07T16:17:34.675Z,23.65
2018-05-07T16:32:34.471Z,23.94
2018-05-07T16:47:35.096Z,23.98
2018-05-07T17:02:35.045Z,23.76
2018-05-07T17:17:34.775Z,23.67
2018-05-07T17:32:35.008Z,23.30
2018-05-07T17:47:46.000Z,22.19
2018-05-07T18:02:35.027Z,21.49
2018-05-07T18:17:37.720Z,21.02
2018-05-07T18:32:34.386Z,20.63
2018-05-07T18:47:34.315Z,20.35
2018-05-07T19:02:34.493Z,20.05
2018-05-07T19:17:34.747Z,19.79
2018-05-07T19:32:34.677Z,19.56
2018-05-07T19:47:36.594Z,19.35
2018-05-07T20:02:38.635Z,19.09
2018-05-07T20:17:36.115Z,18.89
2018-05-07T20:32:37.053Z,18.75
2018-05-07T20:47:37.603Z,18.66
2018-05-07T21:17:36.322Z,19.21
2018-05-07T21:32:37.059Z,19.56
2018-05-07T21:47:34.987Z,19.78
2018-05-07T22:02:34.976Z,19.88
2018-05-07T22:17:36.935Z,19.91
2018-05-07T22:32:36.598Z,19.96
2018-05-07T22:47:37.959Z,19.97
2018-05-07T23:02:37.320Z,19.97
2018-05-07T23:17:37.098Z,20.00
2018-05-07T23:32:42.000Z,20.03
2018-05-07T23:47:39.199Z,20.00
